Kezdőlap
METAR-TAF:

METAR-TAF

Repülőterek :

Boone Municipal Airport

Boone, Iowa, Amerikai Egyesült Államok

földrajzi szélesség: 42-03N, földrajzi hosszúság: 093-51W, magasság: 354 m

Jelenlegi meteorológiai megfigyelések

A jelentés 5 perccel ezelõtt készült, 12:15 UTC
Keleti szél 10 kt
Hőmérséklet 0°C
Páratartalom 100%
Légköri nyomás 1022 hPa
Látótávolság: 16.1 km
Szakadozott felhőzet 700 lábon
Borult 2800 lábon

METAR: KBNW 201215Z AUTO 10010KT 10SM BKN007 OVC028 00/00 A3017 RMK AO2

Idő: 07:20 (12:20 UTC)


TAF: hiányzik

Meteorológiai megfigyelések és előrejelzések több, mint 4000 repülőtéren (METAR és TAF jelentéseket).

A térképen piros és sárga pontok jelzik az elérhető meteorológiai állomásokat.

Mozgassa az egeret a pont fölött, hogy megjelenjen az állomás neve.

Azután kattintson az időjárási megfigyelések és előrejelzések megtekintéséhez.

A térkép megváltoztatása: kattintson a fekete keresztel jelölt zöld gombra ráközelítéshez, a vonallal jelölt zöld gombra távolításhoz, vagy a zöld nyilakra a szomszédos térképek eléréséhez.


METAR-TAF: